sensor_id;sensor_type;location;lat;lon;timestamp;P1;durP1;ratioP1;P2;durP2;ratioP2
9500;SDS011;4788;52.438;9.846;2022-07-23T00:00:21;0.50;;;0.50;;
9500;SDS011;4788;52.438;9.846;2022-07-23T00:02:47;0.43;;;0.43;;
9500;SDS011;4788;52.438;9.846;2022-07-23T00:05:13;0.40;;;0.40;;
9500;SDS011;4788;52.438;9.846;2022-07-23T00:07:39;0.40;;;0.40;;
9500;SDS011;4788;52.438;9.846;2022-07-23T00:10:05;0.40;;;0.40;;
9500;SDS011;4788;52.438;9.846;2022-07-23T00:12:31;0.40;;;0.40;;
9500;SDS011;4788;52.438;9.846;2022-07-23T00:14:57;0.40;;;0.40;;
9500;SDS011;4788;52.438;9.846;2022-07-23T00:17:23;0.40;;;0.40;;
9500;SDS011;4788;52.438;9.846;2022-07-23T00:19:49;0.50;;;0.50;;
9500;SDS011;4788;52.438;9.846;2022-07-23T00:22:15;0.40;;;0.40;;
9500;SDS011;4788;52.438;9.846;2022-07-23T00:24:41;0.40;;;0.40;;
9500;SDS011;4788;52.438;9.846;2022-07-23T00:27:07;0.50;;;0.50;;
9500;SDS011;4788;52.438;9.846;2022-07-23T00:29:33;0.50;;;0.50;;
9500;SDS011;4788;52.438;9.846;2022-07-23T00:31:59;0.40;;;0.40;;
9500;SDS011;4788;52.438;9.846;2022-07-23T00:34:25;0.50;;;0.50;;
9500;SDS011;4788;52.438;9.846;2022-07-23T00:36:50;0.30;;;0.30;;
9500;SDS011;4788;52.438;9.846;2022-07-23T00:39:18;0.40;;;0.40;;
9500;SDS011;4788;52.438;9.846;2022-07-23T00:41:46;0.43;;;0.43;;
9500;SDS011;4788;52.438;9.846;2022-07-23T00:44:15;0.50;;;0.50;;
9500;SDS011;4788;52.438;9.846;2022-07-23T00:46:45;0.40;;;0.40;;
9500;SDS011;4788;52.438;9.846;2022-07-23T00:49:10;0.40;;;0.40;;
9500;SDS011;4788;52.438;9.846;2022-07-23T00:51:36;0.30;;;0.30;;
9500;SDS011;4788;52.438;9.846;2022-07-23T00:54:02;0.40;;;0.40;;
9500;SDS011;4788;52.438;9.846;2022-07-23T00:56:29;0.40;;;0.40;;
9500;SDS011;4788;52.438;9.846;2022-07-23T00:58:55;0.40;;;0.40;;
9500;SDS011;4788;52.438;9.846;2022-07-23T01:01:21;0.50;;;0.50;;
9500;SDS011;4788;52.438;9.846;2022-07-23T01:03:47;0.40;;;0.40;;
9500;SDS011;4788;52.438;9.846;2022-07-23T01:06:13;0.40;;;0.40;;
9500;SDS011;4788;52.438;9.846;2022-07-23T01:08:39;0.40;;;0.40;;
9500;SDS011;4788;52.438;9.846;2022-07-23T01:11:06;0.50;;;0.50;;
9500;SDS011;4788;52.438;9.846;2022-07-23T01:13:31;0.40;;;0.40;;
9500;SDS011;4788;52.438;9.846;2022-07-23T01:15:57;0.40;;;0.40;;
9500;SDS011;4788;52.438;9.846;2022-07-23T01:18:23;0.50;;;0.50;;
9500;SDS011;4788;52.438;9.846;2022-07-23T01:20:49;0.40;;;0.40;;
9500;SDS011;4788;52.438;9.846;2022-07-23T01:23:15;0.40;;;0.40;;
9500;SDS011;4788;52.438;9.846;2022-07-23T01:25:48;0.40;;;0.40;;
9500;SDS011;4788;52.438;9.846;2022-07-23T01:28:14;0.40;;;0.40;;
9500;SDS011;4788;52.438;9.846;2022-07-23T01:30:40;0.50;;;0.50;;
9500;SDS011;4788;52.438;9.846;2022-07-23T01:33:06;0.30;;;0.30;;
9500;SDS011;4788;52.438;9.846;2022-07-23T01:35:33;0.40;;;0.40;;
9500;SDS011;4788;52.438;9.846;2022-07-23T01:37:59;0.50;;;0.50;;
9500;SDS011;4788;52.438;9.846;2022-07-23T01:40:25;0.50;;;0.50;;
9500;SDS011;4788;52.438;9.846;2022-07-23T01:42:51;0.50;;;0.50;;
9500;SDS011;4788;52.438;9.846;2022-07-23T01:45:17;0.43;;;0.43;;
9500;SDS011;4788;52.438;9.846;2022-07-23T01:47:43;0.50;;;0.50;;
9500;SDS011;4788;52.438;9.846;2022-07-23T01:50:09;0.50;;;0.50;;
9500;SDS011;4788;52.438;9.846;2022-07-23T01:52:35;0.40;;;0.40;;
9500;SDS011;4788;52.438;9.846;2022-07-23T01:55:01;0.67;;;0.67;;
9500;SDS011;4788;52.438;9.846;2022-07-23T01:57:27;0.40;;;0.40;;
9500;SDS011;4788;52.438;9.846;2022-07-23T01:59:53;0.50;;;0.50;;
9500;SDS011;4788;52.438;9.846;2022-07-23T02:02:18;0.40;;;0.40;;
9500;SDS011;4788;52.438;9.846;2022-07-23T02:04:44;0.50;;;0.50;;
9500;SDS011;4788;52.438;9.846;2022-07-23T02:07:10;0.50;;;0.50;;
9500;SDS011;4788;52.438;9.846;2022-07-23T02:09:36;0.50;;;0.50;;
9500;SDS011;4788;52.438;9.846;2022-07-23T02:12:02;0.50;;;0.50;;
9500;SDS011;4788;52.438;9.846;2022-07-23T02:14:28;0.50;;;0.50;;
9500;SDS011;4788;52.438;9.846;2022-07-23T02:16:55;0.50;;;0.50;;
9500;SDS011;4788;52.438;9.846;2022-07-23T02:19:21;0.50;;;0.50;;
9500;SDS011;4788;52.438;9.846;2022-07-23T02:21:47;0.50;;;0.50;;
9500;SDS011;4788;52.438;9.846;2022-07-23T02:24:13;0.40;;;0.40;;
9500;SDS011;4788;52.438;9.846;2022-07-23T02:26:39;0.50;;;0.50;;
9500;SDS011;4788;52.438;9.846;2022-07-23T02:29:04;0.40;;;0.40;;
9500;SDS011;4788;52.438;9.846;2022-07-23T02:31:31;0.40;;;0.40;;
9500;SDS011;4788;52.438;9.846;2022-07-23T02:33:57;0.50;;;0.50;;
9500;SDS011;4788;52.438;9.846;2022-07-23T02:36:23;0.50;;;0.50;;
9500;SDS011;4788;52.438;9.846;2022-07-23T02:38:49;0.47;;;0.47;;
9500;SDS011;4788;52.438;9.846;2022-07-23T02:41:15;0.50;;;0.50;;
9500;SDS011;4788;52.438;9.846;2022-07-23T02:43:41;0.50;;;0.50;;
9500;SDS011;4788;52.438;9.846;2022-07-23T02:46:07;0.50;;;0.50;;
9500;SDS011;4788;52.438;9.846;2022-07-23T02:48:33;0.50;;;0.50;;
9500;SDS011;4788;52.438;9.846;2022-07-23T02:50:59;0.50;;;0.50;;
9500;SDS011;4788;52.438;9.846;2022-07-23T02:53:25;0.50;;;0.50;;
9500;SDS011;4788;52.438;9.846;2022-07-23T02:55:51;0.50;;;0.50;;
9500;SDS011;4788;52.438;9.846;2022-07-23T02:58:17;0.50;;;0.50;;
9500;SDS011;4788;52.438;9.846;2022-07-23T03:00:43;0.40;;;0.40;;
9500;SDS011;4788;52.438;9.846;2022-07-23T03:03:09;0.40;;;0.40;;
9500;SDS011;4788;52.438;9.846;2022-07-23T03:05:35;0.40;;;0.40;;
9500;SDS011;4788;52.438;9.846;2022-07-23T03:08:01;0.40;;;0.40;;
9500;SDS011;4788;52.438;9.846;2022-07-23T03:10:27;0.40;;;0.40;;
9500;SDS011;4788;52.438;9.846;2022-07-23T03:12:53;0.50;;;0.50;;
9500;SDS011;4788;52.438;9.846;2022-07-23T03:15:19;0.50;;;0.50;;
9500;SDS011;4788;52.438;9.846;2022-07-23T03:17:45;0.50;;;0.50;;
9500;SDS011;4788;52.438;9.846;2022-07-23T03:20:11;0.50;;;0.50;;
9500;SDS011;4788;52.438;9.846;2022-07-23T03:22:37;0.40;;;0.40;;
9500;SDS011;4788;52.438;9.846;2022-07-23T03:25:03;0.50;;;0.50;;
9500;SDS011;4788;52.438;9.846;2022-07-23T03:27:29;0.50;;;0.50;;
9500;SDS011;4788;52.438;9.846;2022-07-23T03:29:56;0.57;;;0.57;;
9500;SDS011;4788;52.438;9.846;2022-07-23T03:32:23;0.40;;;0.40;;
9500;SDS011;4788;52.438;9.846;2022-07-23T03:34:49;0.50;;;0.50;;
9500;SDS011;4788;52.438;9.846;2022-07-23T03:37:16;0.47;;;0.47;;
9500;SDS011;4788;52.438;9.846;2022-07-23T03:39:42;0.40;;;0.40;;
9500;SDS011;4788;52.438;9.846;2022-07-23T03:42:08;0.47;;;0.47;;
9500;SDS011;4788;52.438;9.846;2022-07-23T03:44:34;0.47;;;0.47;;
9500;SDS011;4788;52.438;9.846;2022-07-23T03:47:02;0.50;;;0.50;;
9500;SDS011;4788;52.438;9.846;2022-07-23T03:49:28;0.47;;;0.47;;
9500;SDS011;4788;52.438;9.846;2022-07-23T03:51:54;0.40;;;0.40;;
9500;SDS011;4788;52.438;9.846;2022-07-23T03:54:20;0.47;;;0.47;;
9500;SDS011;4788;52.438;9.846;2022-07-23T03:56:46;0.40;;;0.40;;
9500;SDS011;4788;52.438;9.846;2022-07-23T03:59:12;0.50;;;0.50;;
9500;SDS011;4788;52.438;9.846;2022-07-23T04:01:38;0.50;;;0.50;;
9500;SDS011;4788;52.438;9.846;2022-07-23T04:04:04;0.50;;;0.50;;
9500;SDS011;4788;52.438;9.846;2022-07-23T04:06:30;0.50;;;0.50;;
9500;SDS011;4788;52.438;9.846;2022-07-23T04:08:57;0.50;;;0.50;;
9500;SDS011;4788;52.438;9.846;2022-07-23T04:11:23;0.40;;;0.40;;
9500;SDS011;4788;52.438;9.846;2022-07-23T04:13:49;0.50;;;0.50;;
9500;SDS011;4788;52.438;9.846;2022-07-23T04:16:15;0.40;;;0.40;;
9500;SDS011;4788;52.438;9.846;2022-07-23T04:18:41;0.50;;;0.50;;
9500;SDS011;4788;52.438;9.846;2022-07-23T04:21:07;0.50;;;0.50;;
9500;SDS011;4788;52.438;9.846;2022-07-23T04:23:33;0.50;;;0.50;;
9500;SDS011;4788;52.438;9.846;2022-07-23T04:25:59;0.40;;;0.40;;
9500;SDS011;4788;52.438;9.846;2022-07-23T04:28:24;0.43;;;0.43;;
9500;SDS011;4788;52.438;9.846;2022-07-23T04:30:50;0.40;;;0.40;;
9500;SDS011;4788;52.438;9.846;2022-07-23T04:33:16;0.40;;;0.40;;
9500;SDS011;4788;52.438;9.846;2022-07-23T04:35:42;0.40;;;0.40;;
9500;SDS011;4788;52.438;9.846;2022-07-23T04:38:08;0.40;;;0.40;;
9500;SDS011;4788;52.438;9.846;2022-07-23T04:40:34;0.50;;;0.50;;
9500;SDS011;4788;52.438;9.846;2022-07-23T04:43:00;0.50;;;0.50;;
9500;SDS011;4788;52.438;9.846;2022-07-23T04:45:26;0.50;;;0.50;;
9500;SDS011;4788;52.438;9.846;2022-07-23T04:47:52;0.40;;;0.40;;
9500;SDS011;4788;52.438;9.846;2022-07-23T04:50:18;0.50;;;0.50;;
9500;SDS011;4788;52.438;9.846;2022-07-23T04:52:46;0.40;;;0.40;;
9500;SDS011;4788;52.438;9.846;2022-07-23T04:55:13;0.50;;;0.50;;
9500;SDS011;4788;52.438;9.846;2022-07-23T04:57:39;0.40;;;0.40;;
9500;SDS011;4788;52.438;9.846;2022-07-23T05:00:05;0.50;;;0.50;;
9500;SDS011;4788;52.438;9.846;2022-07-23T05:02:31;0.40;;;0.40;;
9500;SDS011;4788;52.438;9.846;2022-07-23T05:04:57;0.40;;;0.40;;
9500;SDS011;4788;52.438;9.846;2022-07-23T05:07:23;0.40;;;0.40;;
9500;SDS011;4788;52.438;9.846;2022-07-23T05:09:49;0.50;;;0.50;;
9500;SDS011;4788;52.438;9.846;2022-07-23T05:12:15;0.50;;;0.50;;
9500;SDS011;4788;52.438;9.846;2022-07-23T05:14:41;0.40;;;0.40;;
9500;SDS011;4788;52.438;9.846;2022-07-23T05:17:07;0.40;;;0.40;;
9500;SDS011;4788;52.438;9.846;2022-07-23T05:19:34;0.50;;;0.50;;
9500;SDS011;4788;52.438;9.846;2022-07-23T05:22:00;0.40;;;0.40;;
9500;SDS011;4788;52.438;9.846;2022-07-23T05:24:25;0.50;;;0.50;;
9500;SDS011;4788;52.438;9.846;2022-07-23T05:26:51;0.40;;;0.40;;
9500;SDS011;4788;52.438;9.846;2022-07-23T05:29:17;0.43;;;0.43;;
9500;SDS011;4788;52.438;9.846;2022-07-23T05:31:43;0.40;;;0.40;;
9500;SDS011;4788;52.438;9.846;2022-07-23T05:34:09;0.40;;;0.40;;
9500;SDS011;4788;52.438;9.846;2022-07-23T05:36:35;0.40;;;0.40;;
9500;SDS011;4788;52.438;9.846;2022-07-23T05:39:02;0.40;;;0.40;;
9500;SDS011;4788;52.438;9.846;2022-07-23T05:41:28;0.50;;;0.50;;
9500;SDS011;4788;52.438;9.846;2022-07-23T05:43:54;0.50;;;0.50;;
9500;SDS011;4788;52.438;9.846;2022-07-23T05:46:20;0.43;;;0.43;;
9500;SDS011;4788;52.438;9.846;2022-07-23T05:48:46;0.40;;;0.40;;
9500;SDS011;4788;52.438;9.846;2022-07-23T05:51:18;0.40;;;0.40;;
9500;SDS011;4788;52.438;9.846;2022-07-23T05:53:44;0.40;;;0.40;;
9500;SDS011;4788;52.438;9.846;2022-07-23T05:56:10;0.50;;;0.50;;
9500;SDS011;4788;52.438;9.846;2022-07-23T05:58:36;0.47;;;0.47;;
9500;SDS011;4788;52.438;9.846;2022-07-23T06:01:02;0.40;;;0.40;;
9500;SDS011;4788;52.438;9.846;2022-07-23T06:03:28;0.50;;;0.50;;
9500;SDS011;4788;52.438;9.846;2022-07-23T06:05:54;0.40;;;0.40;;
9500;SDS011;4788;52.438;9.846;2022-07-23T06:08:20;0.40;;;0.40;;
9500;SDS011;4788;52.438;9.846;2022-07-23T06:10:46;0.40;;;0.40;;
9500;SDS011;4788;52.438;9.846;2022-07-23T06:13:12;0.40;;;0.40;;
9500;SDS011;4788;52.438;9.846;2022-07-23T06:15:38;0.30;;;0.30;;
9500;SDS011;4788;52.438;9.846;2022-07-23T06:18:04;0.40;;;0.40;;
9500;SDS011;4788;52.438;9.846;2022-07-23T06:20:30;0.37;;;0.37;;
9500;SDS011;4788;52.438;9.846;2022-07-23T06:22:56;0.40;;;0.40;;
9500;SDS011;4788;52.438;9.846;2022-07-23T06:25:22;0.40;;;0.40;;
9500;SDS011;4788;52.438;9.846;2022-07-23T06:27:48;0.30;;;0.30;;
9500;SDS011;4788;52.438;9.846;2022-07-23T06:30:14;0.30;;;0.30;;
9500;SDS011;4788;52.438;9.846;2022-07-23T06:32:42;0.30;;;0.30;;
9500;SDS011;4788;52.438;9.846;2022-07-23T06:35:08;0.30;;;0.30;;
9500;SDS011;4788;52.438;9.846;2022-07-23T06:37:34;0.30;;;0.30;;
9500;SDS011;4788;52.438;9.846;2022-07-23T06:40:01;0.30;;;0.30;;
9500;SDS011;4788;52.438;9.846;2022-07-23T06:42:26;0.20;;;0.20;;
9500;SDS011;4788;52.438;9.846;2022-07-23T06:44:52;0.37;;;0.37;;
9500;SDS011;4788;52.438;9.846;2022-07-23T06:47:18;0.30;;;0.30;;
9500;SDS011;4788;52.438;9.846;2022-07-23T06:49:44;0.30;;;0.30;;
9500;SDS011;4788;52.438;9.846;2022-07-23T06:52:10;0.30;;;0.30;;
9500;SDS011;4788;52.438;9.846;2022-07-23T06:54:36;0.30;;;0.30;;
9500;SDS011;4788;52.438;9.846;2022-07-23T06:57:02;0.30;;;0.30;;
9500;SDS011;4788;52.438;9.846;2022-07-23T06:59:28;0.30;;;0.30;;
9500;SDS011;4788;52.438;9.846;2022-07-23T07:01:54;0.30;;;0.30;;
9500;SDS011;4788;52.438;9.846;2022-07-23T07:04:20;0.30;;;0.30;;
9500;SDS011;4788;52.438;9.846;2022-07-23T07:06:46;0.30;;;0.30;;
9500;SDS011;4788;52.438;9.846;2022-07-23T07:09:12;0.30;;;0.30;;
9500;SDS011;4788;52.438;9.846;2022-07-23T07:11:38;0.30;;;0.30;;
9500;SDS011;4788;52.438;9.846;2022-07-23T07:14:04;0.30;;;0.30;;
9500;SDS011;4788;52.438;9.846;2022-07-23T07:16:31;0.30;;;0.30;;
9500;SDS011;4788;52.438;9.846;2022-07-23T07:18:57;0.30;;;0.30;;
9500;SDS011;4788;52.438;9.846;2022-07-23T07:21:23;0.30;;;0.30;;
9500;SDS011;4788;52.438;9.846;2022-07-23T07:23:48;0.30;;;0.30;;
9500;SDS011;4788;52.438;9.846;2022-07-23T07:26:14;0.30;;;0.30;;
9500;SDS011;4788;52.438;9.846;2022-07-23T07:28:40;0.30;;;0.30;;
9500;SDS011;4788;52.438;9.846;2022-07-23T07:31:06;0.30;;;0.30;;
9500;SDS011;4788;52.438;9.846;2022-07-23T07:33:32;0.30;;;0.30;;
9500;SDS011;4788;52.438;9.846;2022-07-23T07:35:58;0.20;;;0.20;;
9500;SDS011;4788;52.438;9.846;2022-07-23T07:38:25;0.30;;;0.30;;
9500;SDS011;4788;52.438;9.846;2022-07-23T07:40:51;0.40;;;0.40;;
9500;SDS011;4788;52.438;9.846;2022-07-23T07:43:17;0.30;;;0.30;;
9500;SDS011;4788;52.438;9.846;2022-07-23T07:45:43;0.30;;;0.30;;
9500;SDS011;4788;52.438;9.846;2022-07-23T07:48:09;0.20;;;0.20;;
9500;SDS011;4788;52.438;9.846;2022-07-23T07:50:35;0.20;;;0.20;;
9500;SDS011;4788;52.438;9.846;2022-07-23T07:53:01;0.20;;;0.20;;
9500;SDS011;4788;52.438;9.846;2022-07-23T07:55:27;0.30;;;0.30;;
9500;SDS011;4788;52.438;9.846;2022-07-23T07:57:53;0.20;;;0.20;;
9500;SDS011;4788;52.438;9.846;2022-07-23T08:00:19;0.30;;;0.30;;
9500;SDS011;4788;52.438;9.846;2022-07-23T08:02:52;0.30;;;0.30;;
9500;SDS011;4788;52.438;9.846;2022-07-23T08:05:19;0.30;;;0.30;;
9500;SDS011;4788;52.438;9.846;2022-07-23T08:07:46;0.20;;;0.20;;
9500;SDS011;4788;52.438;9.846;2022-07-23T08:10:12;0.20;;;0.20;;
9500;SDS011;4788;52.438;9.846;2022-07-23T08:12:56;0.20;;;0.20;;
9500;SDS011;4788;52.438;9.846;2022-07-23T08:15:22;0.20;;;0.20;;
9500;SDS011;4788;52.438;9.846;2022-07-23T08:17:49;0.20;;;0.20;;
9500;SDS011;4788;52.438;9.846;2022-07-23T08:20:16;0.23;;;0.23;;
9500;SDS011;4788;52.438;9.846;2022-07-23T08:25:24;0.20;;;0.20;;
9500;SDS011;4788;52.438;9.846;2022-07-23T08:27:51;0.30;;;0.30;;
9500;SDS011;4788;52.438;9.846;2022-07-23T08:30:17;0.30;;;0.30;;
9500;SDS011;4788;52.438;9.846;2022-07-23T08:32:53;0.30;;;0.30;;
9500;SDS011;4788;52.438;9.846;2022-07-23T08:35:23;0.30;;;0.30;;
9500;SDS011;4788;52.438;9.846;2022-07-23T08:37:49;0.30;;;0.30;;
9500;SDS011;4788;52.438;9.846;2022-07-23T08:40:15;0.20;;;0.20;;
9500;SDS011;4788;52.438;9.846;2022-07-23T08:42:41;0.20;;;0.20;;
9500;SDS011;4788;52.438;9.846;2022-07-23T08:45:08;0.20;;;0.20;;
9500;SDS011;4788;52.438;9.846;2022-07-23T08:47:34;0.20;;;0.20;;
9500;SDS011;4788;52.438;9.846;2022-07-23T08:50:01;0.20;;;0.20;;
9500;SDS011;4788;52.438;9.846;2022-07-23T08:52:27;0.20;;;0.20;;
9500;SDS011;4788;52.438;9.846;2022-07-23T08:54:54;0.30;;;0.30;;
9500;SDS011;4788;52.438;9.846;2022-07-23T08:57:20;0.20;;;0.20;;
9500;SDS011;4788;52.438;9.846;2022-07-23T08:59:46;0.20;;;0.20;;
9500;SDS011;4788;52.438;9.846;2022-07-23T09:02:12;0.20;;;0.20;;
9500;SDS011;4788;52.438;9.846;2022-07-23T09:04:38;0.20;;;0.20;;
9500;SDS011;4788;52.438;9.846;2022-07-23T09:07:04;0.20;;;0.20;;
9500;SDS011;4788;52.438;9.846;2022-07-23T09:09:30;0.10;;;0.10;;
9500;SDS011;4788;52.438;9.846;2022-07-23T09:12:03;0.10;;;0.10;;
9500;SDS011;4788;52.438;9.846;2022-07-23T09:14:40;0.10;;;0.10;;
9500;SDS011;4788;52.438;9.846;2022-07-23T09:19:35;0.20;;;0.20;;
9500;SDS011;4788;52.438;9.846;2022-07-23T09:22:20;0.20;;;0.20;;
9500;SDS011;4788;52.438;9.846;2022-07-23T09:25:06;0.30;;;0.30;;
9500;SDS011;4788;52.438;9.846;2022-07-23T09:27:49;0.20;;;0.20;;
9500;SDS011;4788;52.438;9.846;2022-07-23T09:30:15;0.30;;;0.30;;
9500;SDS011;4788;52.438;9.846;2022-07-23T09:32:42;0.30;;;0.30;;
9500;SDS011;4788;52.438;9.846;2022-07-23T09:35:08;0.30;;;0.30;;
9500;SDS011;4788;52.438;9.846;2022-07-23T09:37:34;0.20;;;0.20;;
9500;SDS011;4788;52.438;9.846;2022-07-23T09:40:07;0.20;;;0.20;;
9500;SDS011;4788;52.438;9.846;2022-07-23T09:42:34;0.20;;;0.20;;
9500;SDS011;4788;52.438;9.846;2022-07-23T09:45:00;0.10;;;0.10;;
9500;SDS011;4788;52.438;9.846;2022-07-23T09:47:28;0.20;;;0.20;;
9500;SDS011;4788;52.438;9.846;2022-07-23T09:49:58;0.20;;;0.20;;
9500;SDS011;4788;52.438;9.846;2022-07-23T09:52:26;0.20;;;0.20;;
9500;SDS011;4788;52.438;9.846;2022-07-23T09:54:57;0.20;;;0.20;;
9500;SDS011;4788;52.438;9.846;2022-07-23T09:57:24;0.20;;;0.20;;
9500;SDS011;4788;52.438;9.846;2022-07-23T09:59:50;0.27;;;0.27;;
9500;SDS011;4788;52.438;9.846;2022-07-23T10:02:16;0.20;;;0.20;;
9500;SDS011;4788;52.438;9.846;2022-07-23T10:04:43;0.20;;;0.20;;
9500;SDS011;4788;52.438;9.846;2022-07-23T10:07:09;0.20;;;0.20;;
9500;SDS011;4788;52.438;9.846;2022-07-23T10:09:37;0.20;;;0.20;;
9500;SDS011;4788;52.438;9.846;2022-07-23T10:12:03;0.10;;;0.10;;
9500;SDS011;4788;52.438;9.846;2022-07-23T10:14:40;0.10;;;0.10;;
9500;SDS011;4788;52.438;9.846;2022-07-23T10:17:07;0.10;;;0.10;;
9500;SDS011;4788;52.438;9.846;2022-07-23T10:19:33;0.10;;;0.10;;
9500;SDS011;4788;52.438;9.846;2022-07-23T10:22:13;0.10;;;0.10;;
9500;SDS011;4788;52.438;9.846;2022-07-23T10:29:45;0.10;;;0.10;;
9500;SDS011;4788;52.438;9.846;2022-07-23T10:40:01;0.20;;;0.20;;
9500;SDS011;4788;52.438;9.846;2022-07-23T10:42:33;0.20;;;0.20;;
9500;SDS011;4788;52.438;9.846;2022-07-23T10:45:00;0.20;;;0.20;;
9500;SDS011;4788;52.438;9.846;2022-07-23T10:47:29;0.10;;;0.10;;
9500;SDS011;4788;52.438;9.846;2022-07-23T10:52:42;0.10;;;0.10;;
9500;SDS011;4788;52.438;9.846;2022-07-23T10:57:54;0.10;;;0.10;;
9500;SDS011;4788;52.438;9.846;2022-07-23T11:00:23;0.20;;;0.20;;
9500;SDS011;4788;52.438;9.846;2022-07-23T11:02:51;0.15;;;0.15;;
9500;SDS011;4788;52.438;9.846;2022-07-23T11:05:18;0.10;;;0.10;;
9500;SDS011;4788;52.438;9.846;2022-07-23T11:10:36;0.10;;;0.10;;
9500;SDS011;4788;52.438;9.846;2022-07-23T11:31:52;0.10;;;0.10;;
9500;SDS011;4788;52.438;9.846;2022-07-23T11:34:30;0.20;;;0.20;;
9500;SDS011;4788;52.438;9.846;2022-07-23T11:36:56;0.20;;;0.20;;
9500;SDS011;4788;52.438;9.846;2022-07-23T11:39:24;0.20;;;0.20;;
9500;SDS011;4788;52.438;9.846;2022-07-23T11:41:51;0.10;;;0.10;;
9500;SDS011;4788;52.438;9.846;2022-07-23T11:44:30;0.10;;;0.10;;
9500;SDS011;4788;52.438;9.846;2022-07-23T11:49:23;0.10;;;0.10;;
9500;SDS011;4788;52.438;9.846;2022-07-23T11:54:34;0.10;;;0.10;;
9500;SDS011;4788;52.438;9.846;2022-07-23T11:57:01;0.20;;;0.20;;
9500;SDS011;4788;52.438;9.846;2022-07-23T11:59:28;0.10;;;0.10;;
9500;SDS011;4788;52.438;9.846;2022-07-23T12:01:57;0.20;;;0.20;;
9500;SDS011;4788;52.438;9.846;2022-07-23T12:04:24;0.10;;;0.10;;
9500;SDS011;4788;52.438;9.846;2022-07-23T12:06:50;0.10;;;0.10;;
9500;SDS011;4788;52.438;9.846;2022-07-23T12:09:16;0.10;;;0.10;;
9500;SDS011;4788;52.438;9.846;2022-07-23T12:12:15;0.10;;;0.10;;
9500;SDS011;4788;52.438;9.846;2022-07-23T12:14:35;0.10;;;0.10;;
9500;SDS011;4788;52.438;9.846;2022-07-23T12:17:12;0.10;;;0.10;;
9500;SDS011;4788;52.438;9.846;2022-07-23T12:19:38;0.10;;;0.10;;
9500;SDS011;4788;52.438;9.846;2022-07-23T12:22:04;0.10;;;0.10;;
9500;SDS011;4788;52.438;9.846;2022-07-23T12:24:30;0.10;;;0.10;;
9500;SDS011;4788;52.438;9.846;2022-07-23T12:27:11;0.10;;;0.10;;
9500;SDS011;4788;52.438;9.846;2022-07-23T12:29:39;0.10;;;0.10;;
9500;SDS011;4788;52.438;9.846;2022-07-23T12:32:16;0.20;;;0.20;;
9500;SDS011;4788;52.438;9.846;2022-07-23T12:34:43;0.10;;;0.10;;
9500;SDS011;4788;52.438;9.846;2022-07-23T12:37:24;0.10;;;0.10;;
9500;SDS011;4788;52.438;9.846;2022-07-23T12:39:50;0.10;;;0.10;;
9500;SDS011;4788;52.438;9.846;2022-07-23T12:42:16;0.10;;;0.10;;
9500;SDS011;4788;52.438;9.846;2022-07-23T12:45:01;0.10;;;0.10;;
9500;SDS011;4788;52.438;9.846;2022-07-23T12:47:27;0.10;;;0.10;;
9500;SDS011;4788;52.438;9.846;2022-07-23T12:49:53;0.10;;;0.10;;
9500;SDS011;4788;52.438;9.846;2022-07-23T12:52:19;0.10;;;0.10;;
9500;SDS011;4788;52.438;9.846;2022-07-23T12:54:45;0.10;;;0.10;;
9500;SDS011;4788;52.438;9.846;2022-07-23T12:57:11;0.10;;;0.10;;
9500;SDS011;4788;52.438;9.846;2022-07-23T12:59:37;0.10;;;0.10;;
9500;SDS011;4788;52.438;9.846;2022-07-23T13:02:03;0.10;;;0.10;;
9500;SDS011;4788;52.438;9.846;2022-07-23T13:04:29;0.10;;;0.10;;
9500;SDS011;4788;52.438;9.846;2022-07-23T13:06:59;0.10;;;0.10;;
9500;SDS011;4788;52.438;9.846;2022-07-23T13:09:28;0.10;;;0.10;;
9500;SDS011;4788;52.438;9.846;2022-07-23T13:11:55;0.10;;;0.10;;
9500;SDS011;4788;52.438;9.846;2022-07-23T13:14:21;0.10;;;0.10;;
9500;SDS011;4788;52.438;9.846;2022-07-23T13:16:48;0.10;;;0.10;;
9500;SDS011;4788;52.438;9.846;2022-07-23T13:19:14;0.10;;;0.10;;
9500;SDS011;4788;52.438;9.846;2022-07-23T13:21:40;0.10;;;0.10;;
9500;SDS011;4788;52.438;9.846;2022-07-23T13:24:07;0.10;;;0.10;;
9500;SDS011;4788;52.438;9.846;2022-07-23T13:26:33;0.10;;;0.10;;
9500;SDS011;4788;52.438;9.846;2022-07-23T13:28:59;0.10;;;0.10;;
9500;SDS011;4788;52.438;9.846;2022-07-23T13:31:25;0.10;;;0.10;;
9500;SDS011;4788;52.438;9.846;2022-07-23T13:33:51;0.10;;;0.10;;
9500;SDS011;4788;52.438;9.846;2022-07-23T13:36:17;0.10;;;0.10;;
9500;SDS011;4788;52.438;9.846;2022-07-23T13:38:43;0.10;;;0.10;;
9500;SDS011;4788;52.438;9.846;2022-07-23T13:41:09;0.10;;;0.10;;
9500;SDS011;4788;52.438;9.846;2022-07-23T13:43:35;0.10;;;0.10;;
9500;SDS011;4788;52.438;9.846;2022-07-23T13:46:01;0.10;;;0.10;;
9500;SDS011;4788;52.438;9.846;2022-07-23T13:48:27;0.10;;;0.10;;
9500;SDS011;4788;52.438;9.846;2022-07-23T13:50:54;0.10;;;0.10;;
9500;SDS011;4788;52.438;9.846;2022-07-23T13:53:20;0.10;;;0.10;;
9500;SDS011;4788;52.438;9.846;2022-07-23T13:55:47;0.10;;;0.10;;
9500;SDS011;4788;52.438;9.846;2022-07-23T13:58:13;0.20;;;0.20;;
9500;SDS011;4788;52.438;9.846;2022-07-23T14:00:41;0.10;;;0.10;;
9500;SDS011;4788;52.438;9.846;2022-07-23T14:03:08;0.17;;;0.17;;
9500;SDS011;4788;52.438;9.846;2022-07-23T14:05:34;0.10;;;0.10;;
9500;SDS011;4788;52.438;9.846;2022-07-23T14:08:00;0.10;;;0.10;;
9500;SDS011;4788;52.438;9.846;2022-07-23T14:10:26;0.10;;;0.10;;
9500;SDS011;4788;52.438;9.846;2022-07-23T14:12:52;0.10;;;0.10;;
9500;SDS011;4788;52.438;9.846;2022-07-23T14:15:21;0.10;;;0.10;;
9500;SDS011;4788;52.438;9.846;2022-07-23T14:17:47;0.10;;;0.10;;
9500;SDS011;4788;52.438;9.846;2022-07-23T14:20:14;0.17;;;0.17;;
9500;SDS011;4788;52.438;9.846;2022-07-23T14:22:40;0.10;;;0.10;;
9500;SDS011;4788;52.438;9.846;2022-07-23T14:25:07;0.13;;;0.13;;
9500;SDS011;4788;52.438;9.846;2022-07-23T14:27:33;0.10;;;0.10;;
9500;SDS011;4788;52.438;9.846;2022-07-23T14:29:59;0.10;;;0.10;;
9500;SDS011;4788;52.438;9.846;2022-07-23T14:32:26;0.20;;;0.20;;
9500;SDS011;4788;52.438;9.846;2022-07-23T14:34:52;0.10;;;0.10;;
9500;SDS011;4788;52.438;9.846;2022-07-23T14:37:18;0.20;;;0.20;;
9500;SDS011;4788;52.438;9.846;2022-07-23T14:39:44;0.20;;;0.20;;
9500;SDS011;4788;52.438;9.846;2022-07-23T14:42:10;0.20;;;0.20;;
9500;SDS011;4788;52.438;9.846;2022-07-23T14:44:36;0.10;;;0.10;;
9500;SDS011;4788;52.438;9.846;2022-07-23T14:47:03;0.20;;;0.20;;
9500;SDS011;4788;52.438;9.846;2022-07-23T14:49:30;0.20;;;0.20;;
9500;SDS011;4788;52.438;9.846;2022-07-23T14:52:00;0.10;;;0.10;;
9500;SDS011;4788;52.438;9.846;2022-07-23T14:54:28;0.10;;;0.10;;
9500;SDS011;4788;52.438;9.846;2022-07-23T14:56:54;0.10;;;0.10;;
9500;SDS011;4788;52.438;9.846;2022-07-23T14:59:20;0.20;;;0.20;;
9500;SDS011;4788;52.438;9.846;2022-07-23T15:01:46;0.20;;;0.20;;
9500;SDS011;4788;52.438;9.846;2022-07-23T15:04:13;0.20;;;0.20;;
9500;SDS011;4788;52.438;9.846;2022-07-23T15:06:39;0.20;;;0.20;;
9500;SDS011;4788;52.438;9.846;2022-07-23T15:09:05;0.20;;;0.20;;
9500;SDS011;4788;52.438;9.846;2022-07-23T15:11:31;0.10;;;0.10;;
9500;SDS011;4788;52.438;9.846;2022-07-23T15:14:00;0.10;;;0.10;;
9500;SDS011;4788;52.438;9.846;2022-07-23T15:16:26;0.10;;;0.10;;
9500;SDS011;4788;52.438;9.846;2022-07-23T15:18:52;0.20;;;0.20;;
9500;SDS011;4788;52.438;9.846;2022-07-23T15:21:18;0.10;;;0.10;;
9500;SDS011;4788;52.438;9.846;2022-07-23T15:23:44;0.10;;;0.10;;
9500;SDS011;4788;52.438;9.846;2022-07-23T15:26:10;0.10;;;0.10;;
9500;SDS011;4788;52.438;9.846;2022-07-23T15:28:36;0.20;;;0.20;;
9500;SDS011;4788;52.438;9.846;2022-07-23T15:31:02;0.10;;;0.10;;
9500;SDS011;4788;52.438;9.846;2022-07-23T15:33:29;0.20;;;0.20;;
9500;SDS011;4788;52.438;9.846;2022-07-23T15:35:55;0.10;;;0.10;;
9500;SDS011;4788;52.438;9.846;2022-07-23T15:38:23;0.20;;;0.20;;
9500;SDS011;4788;52.438;9.846;2022-07-23T15:40:49;0.17;;;0.17;;
9500;SDS011;4788;52.438;9.846;2022-07-23T15:43:15;0.20;;;0.20;;
9500;SDS011;4788;52.438;9.846;2022-07-23T15:45:41;0.17;;;0.17;;
9500;SDS011;4788;52.438;9.846;2022-07-23T15:48:07;0.10;;;0.10;;
9500;SDS011;4788;52.438;9.846;2022-07-23T15:50:33;0.20;;;0.20;;
9500;SDS011;4788;52.438;9.846;2022-07-23T15:52:59;0.20;;;0.20;;
9500;SDS011;4788;52.438;9.846;2022-07-23T15:55:25;0.20;;;0.20;;
9500;SDS011;4788;52.438;9.846;2022-07-23T15:57:51;0.20;;;0.20;;
9500;SDS011;4788;52.438;9.846;2022-07-23T16:00:17;0.10;;;0.10;;
9500;SDS011;4788;52.438;9.846;2022-07-23T16:02:43;0.20;;;0.20;;